createdAt,value
2018-10-18T00:00:36.650Z,16.85
2018-10-18T00:03:10.293Z,16.25
2018-10-18T00:05:44.045Z,14.57
2018-10-18T00:08:17.759Z,15.60
2018-10-18T00:10:51.260Z,18.60
2018-10-18T00:13:24.852Z,16.02
2018-10-18T00:15:58.565Z,16.10
2018-10-18T00:18:32.102Z,15.80
2018-10-18T00:21:05.655Z,15.95
2018-10-18T00:23:39.294Z,17.15
2018-10-18T00:26:13.207Z,15.18
2018-10-18T00:28:46.697Z,15.60
2018-10-18T00:31:20.270Z,16.35
2018-10-18T00:33:54.035Z,16.15
2018-10-18T00:36:27.864Z,13.13
2018-10-18T00:39:01.753Z,16.23
2018-10-18T00:41:35.481Z,14.07
2018-10-18T00:44:09.101Z,15.32
2018-10-18T00:46:42.778Z,17.60
2018-10-18T00:49:16.493Z,14.45
2018-10-18T00:51:50.132Z,23.02
2018-10-18T00:54:23.765Z,16.50
2018-10-18T00:56:57.531Z,17.20
2018-10-18T00:59:31.173Z,16.77
2018-10-18T01:02:04.858Z,14.18
2018-10-18T01:04:38.409Z,17.77
2018-10-18T01:07:11.992Z,19.17
2018-10-18T01:09:45.623Z,16.40
2018-10-18T01:12:19.285Z,16.27
2018-10-18T01:14:53.570Z,17.55
2018-10-18T01:17:27.265Z,17.52
2018-10-18T01:20:00.849Z,15.68
2018-10-18T01:22:34.419Z,18.55
2018-10-18T01:25:07.964Z,14.68
2018-10-18T01:27:41.721Z,17.77
2018-10-18T01:30:15.555Z,20.35
2018-10-18T01:32:49.034Z,20.58
2018-10-18T01:35:22.582Z,19.83
2018-10-18T01:37:56.398Z,16.65
2018-10-18T01:40:30.014Z,18.23
2018-10-18T01:43:03.644Z,22.67
2018-10-18T01:45:37.983Z,20.85
2018-10-18T01:48:11.667Z,16.92
2018-10-18T01:50:45.254Z,19.35
2018-10-18T01:53:18.944Z,14.77
2018-10-18T01:55:52.728Z,17.02
2018-10-18T01:58:26.309Z,16.75
2018-10-18T02:01:00.127Z,18.35
2018-10-18T02:03:33.778Z,18.20
2018-10-18T02:06:07.492Z,17.75
2018-10-18T02:08:41.938Z,17.02
2018-10-18T02:11:15.762Z,16.40
2018-10-18T02:13:49.339Z,18.45
2018-10-18T02:16:23.158Z,19.30
2018-10-18T02:18:57.699Z,18.77
2018-10-18T02:21:31.257Z,17.50
2018-10-18T02:24:04.886Z,21.87
2018-10-18T02:26:38.500Z,16.27
2018-10-18T02:29:12.286Z,18.50
2018-10-18T02:31:46.008Z,16.08
2018-10-18T02:34:20.318Z,16.33
2018-10-18T02:36:54.836Z,22.65
2018-10-18T02:39:28.417Z,16.37
2018-10-18T02:42:02.115Z,14.90
2018-10-18T02:44:35.878Z,16.05
2018-10-18T02:47:09.501Z,13.95
2018-10-18T02:49:43.106Z,18.33
2018-10-18T02:52:17.570Z,15.65
2018-10-18T02:54:51.871Z,15.15
2018-10-18T02:57:25.585Z,15.23
2018-10-18T02:59:59.436Z,16.25
2018-10-18T03:02:33.047Z,14.82
2018-10-18T03:05:06.630Z,16.23
2018-10-18T03:07:40.205Z,14.80
2018-10-18T03:10:13.872Z,13.70
2018-10-18T03:12:47.422Z,17.42
2018-10-18T03:15:20.982Z,15.32
2018-10-18T03:17:55.405Z,18.90
2018-10-18T03:20:29.051Z,18.08
2018-10-18T03:23:02.700Z,16.40
2018-10-18T03:25:36.213Z,16.10
2018-10-18T03:28:09.816Z,18.52
2018-10-18T03:30:44.342Z,17.12
2018-10-18T03:33:18.778Z,14.70
2018-10-18T03:35:52.604Z,19.30
2018-10-18T03:38:26.320Z,13.48
2018-10-18T03:41:00.090Z,18.33
2018-10-18T03:43:34.417Z,15.63
2018-10-18T03:46:08.119Z,19.75
2018-10-18T03:48:41.747Z,17.77
2018-10-18T03:51:15.517Z,15.70
2018-10-18T03:53:49.074Z,18.73
2018-10-18T03:56:22.675Z,20.92
2018-10-18T03:58:57.264Z,20.90
2018-10-18T04:01:30.890Z,15.00
2018-10-18T04:04:04.628Z,16.45
2018-10-18T04:06:39.076Z,21.77
2018-10-18T04:09:13.379Z,16.65
2018-10-18T04:11:46.967Z,20.02
2018-10-18T04:14:20.568Z,15.00
2018-10-18T04:16:54.271Z,20.98
2018-10-18T04:19:28.035Z,16.98
2018-10-18T04:22:01.626Z,22.30
2018-10-18T04:24:35.226Z,20.17
2018-10-18T04:27:09.002Z,22.10
2018-10-18T04:29:42.582Z,17.75
2018-10-18T04:32:17.126Z,16.48
2018-10-18T04:34:50.967Z,18.55
2018-10-18T04:37:24.567Z,19.30
2018-10-18T04:39:58.347Z,17.20
2018-10-18T04:42:31.975Z,20.15
2018-10-18T04:45:05.579Z,17.92
2018-10-18T04:47:40.241Z,13.43
2018-10-18T04:50:13.733Z,18.80
2018-10-18T04:52:47.247Z,19.77
2018-10-18T04:55:20.826Z,18.10
2018-10-18T04:57:55.175Z,19.55
2018-10-18T05:00:28.792Z,18.65
2018-10-18T05:03:02.592Z,16.20
2018-10-18T05:05:37.181Z,18.37
2018-10-18T05:08:11.014Z,18.40
2018-10-18T05:10:44.738Z,16.30
2018-10-18T05:13:18.523Z,20.15
2018-10-18T05:15:52.080Z,20.58
2018-10-18T05:18:25.686Z,17.80
2018-10-18T05:20:59.799Z,23.05
2018-10-18T05:23:33.591Z,17.08
2018-10-18T05:26:07.398Z,22.92
2018-10-18T05:28:41.789Z,18.77
2018-10-18T05:31:15.631Z,17.10
2018-10-18T05:33:51.488Z,18.08
2018-10-18T05:36:25.964Z,22.20
2018-10-18T05:39:00.378Z,17.42
2018-10-18T05:41:34.112Z,18.15
2018-10-18T05:44:08.625Z,20.50
2018-10-18T05:46:42.248Z,19.08
2018-10-18T05:49:15.883Z,20.45
2018-10-18T05:51:49.346Z,20.88
2018-10-18T05:54:22.938Z,20.90
2018-10-18T05:56:56.737Z,20.12
2018-10-18T05:59:30.305Z,26.12
2018-10-18T06:02:03.881Z,18.45
2018-10-18T06:04:38.227Z,19.33
2018-10-18T06:07:11.886Z,18.58
2018-10-18T06:09:45.418Z,21.15
2018-10-18T06:12:19.021Z,26.48
2018-10-18T06:14:52.777Z,21.67
2018-10-18T06:17:26.349Z,21.12
2018-10-18T06:20:00.050Z,20.95
2018-10-18T06:22:33.677Z,22.13
2018-10-18T06:25:07.499Z,24.12
2018-10-18T06:27:41.084Z,19.70
2018-10-18T06:30:14.809Z,18.67
2018-10-18T06:32:48.431Z,21.20
2018-10-18T06:35:22.016Z,22.05
2018-10-18T06:37:55.786Z,17.35
2018-10-18T06:40:29.360Z,19.95
2018-10-18T06:43:03.243Z,18.52
2018-10-18T06:45:37.622Z,20.90
2018-10-18T06:48:12.063Z,20.80
2018-10-18T06:50:47.519Z,17.70
2018-10-18T06:53:21.172Z,17.37
2018-10-18T06:55:55.022Z,18.00
2018-10-18T06:58:28.744Z,19.50
2018-10-18T07:01:02.398Z,20.17
2018-10-18T07:03:36.059Z,21.37
2018-10-18T07:06:10.461Z,19.70
2018-10-18T07:08:44.316Z,17.77
2018-10-18T07:11:18.023Z,20.05
2018-10-18T07:13:51.632Z,22.30
2018-10-18T07:16:25.349Z,19.35
2018-10-18T07:18:58.892Z,21.10
2018-10-18T07:21:32.469Z,18.48
2018-10-18T07:24:06.031Z,24.80
2018-10-18T07:26:39.621Z,20.27
2018-10-18T07:29:13.212Z,22.95
2018-10-18T07:31:46.879Z,23.87
2018-10-18T07:34:20.558Z,23.40
2018-10-18T07:36:54.860Z,24.85
2018-10-18T07:39:28.603Z,23.17
2018-10-18T07:42:02.455Z,20.33
2018-10-18T07:44:36.193Z,22.05
2018-10-18T07:47:10.004Z,19.58
2018-10-18T07:49:43.739Z,21.70
2018-10-18T07:52:17.529Z,20.95
2018-10-18T07:54:51.179Z,18.42
2018-10-18T07:57:24.928Z,22.13
2018-10-18T07:59:59.396Z,19.67
2018-10-18T08:02:33.004Z,18.65
2018-10-18T08:05:06.649Z,19.10
2018-10-18T08:07:40.347Z,18.85
2018-10-18T08:10:13.920Z,19.52
2018-10-18T08:12:47.508Z,20.12
2018-10-18T08:15:21.421Z,19.83
2018-10-18T08:17:55.153Z,19.85
2018-10-18T08:20:28.795Z,23.90
2018-10-18T08:23:02.582Z,20.12
2018-10-18T08:25:37.113Z,23.38
2018-10-18T08:28:10.783Z,22.67
2018-10-18T08:30:44.512Z,24.80
2018-10-18T08:33:18.230Z,22.15
2018-10-18T08:35:52.037Z,26.25
2018-10-18T08:38:25.645Z,22.98
2018-10-18T08:40:59.308Z,21.80
2018-10-18T08:43:33.635Z,21.90
2018-10-18T08:46:07.458Z,21.08
2018-10-18T08:48:41.138Z,21.40
2018-10-18T08:51:14.694Z,22.37
2018-10-18T08:53:48.367Z,24.50
2018-10-18T08:56:21.959Z,26.33
2018-10-18T08:58:55.690Z,22.52
2018-10-18T09:01:29.511Z,21.97
2018-10-18T09:04:04.030Z,24.50
2018-10-18T09:06:37.812Z,24.67
2018-10-18T09:09:12.236Z,21.10
2018-10-18T09:11:45.761Z,21.10
2018-10-18T09:14:19.287Z,23.30
2018-10-18T09:16:53.711Z,24.50
2018-10-18T09:19:27.441Z,21.47
2018-10-18T09:22:01.253Z,26.63
2018-10-18T09:24:34.938Z,24.27
2018-10-18T09:27:08.675Z,22.37
2018-10-18T09:29:42.277Z,27.40
2018-10-18T09:32:15.900Z,23.20
2018-10-18T09:34:49.717Z,29.07
2018-10-18T09:37:23.319Z,26.77
2018-10-18T09:39:57.055Z,25.63
2018-10-18T09:42:30.702Z,23.87
2018-10-18T09:45:04.315Z,26.47
2018-10-18T09:47:37.945Z,23.70
2018-10-18T09:50:12.478Z,24.67
2018-10-18T09:52:46.286Z,25.27
2018-10-18T09:55:20.049Z,22.50
2018-10-18T09:57:54.509Z,25.07
2018-10-18T10:00:29.431Z,27.90
2018-10-18T10:03:03.250Z,27.10
2018-10-18T10:05:37.071Z,26.97
2018-10-18T10:08:10.708Z,26.57
2018-10-18T10:10:45.072Z,26.27
2018-10-18T10:13:18.857Z,24.27
2018-10-18T10:15:52.467Z,25.63
2018-10-18T10:18:26.089Z,24.53
2018-10-18T10:21:00.585Z,28.37
2018-10-18T10:23:35.676Z,25.17
2018-10-18T10:26:14.135Z,26.30
2018-10-18T10:28:47.704Z,26.63
2018-10-18T10:31:21.597Z,26.83
2018-10-18T10:33:57.019Z,25.60
2018-10-18T10:36:30.734Z,26.00
2018-10-18T10:39:04.510Z,24.07
2018-10-18T10:41:38.398Z,25.70
2018-10-18T10:44:12.962Z,26.60
2018-10-18T10:46:46.799Z,34.20
2018-10-18T10:49:20.591Z,26.03
2018-10-18T10:51:55.196Z,24.27
2018-10-18T10:54:28.962Z,24.40
2018-10-18T10:57:02.883Z,25.13
2018-10-18T10:59:36.511Z,27.43
2018-10-18T11:02:10.210Z,24.53
2018-10-18T11:04:44.142Z,24.13
2018-10-18T11:07:17.987Z,25.40
2018-10-18T11:09:52.595Z,24.60
2018-10-18T11:12:26.364Z,25.77
2018-10-18T11:15:00.944Z,24.80
2018-10-18T11:17:34.587Z,24.47
2018-10-18T11:20:08.266Z,22.83
2018-10-18T11:22:41.896Z,21.13
2018-10-18T11:25:15.492Z,23.33
2018-10-18T11:27:49.131Z,22.27
2018-10-18T11:30:23.586Z,21.63
2018-10-18T11:32:57.336Z,19.57
2018-10-18T11:35:30.915Z,23.10
2018-10-18T11:38:04.755Z,20.83
2018-10-18T11:40:38.398Z,21.77
2018-10-18T11:43:12.141Z,22.50
2018-10-18T11:45:45.833Z,21.47
2018-10-18T11:48:19.636Z,24.37
2018-10-18T11:50:53.345Z,24.90
2018-10-18T11:53:27.038Z,21.03
2018-10-18T11:56:01.624Z,25.13
2018-10-18T11:58:35.363Z,23.60
2018-10-18T12:01:09.064Z,23.70
2018-10-18T12:03:42.805Z,26.70
2018-10-18T12:06:16.570Z,19.45
2018-10-18T12:08:50.328Z,20.52
2018-10-18T12:11:24.125Z,22.00
2018-10-18T12:13:57.866Z,23.52
2018-10-18T12:16:31.499Z,24.95
2018-10-18T12:19:05.267Z,23.50
2018-10-18T12:21:38.782Z,25.05
2018-10-18T12:24:12.537Z,25.50
2018-10-18T12:26:46.331Z,24.48
2018-10-18T12:29:20.081Z,23.08
2018-10-18T12:31:53.836Z,23.63
2018-10-18T12:34:27.476Z,25.40
2018-10-18T12:37:01.574Z,21.55
2018-10-18T12:39:35.798Z,22.83
2018-10-18T12:42:09.566Z,20.27
2018-10-18T12:44:43.305Z,21.90
2018-10-18T12:47:17.116Z,24.33
2018-10-18T12:49:50.722Z,24.10
2018-10-18T12:52:25.482Z,19.80
2018-10-18T12:54:59.261Z,23.92
2018-10-18T12:57:33.032Z,19.70
2018-10-18T13:00:06.867Z,19.00
2018-10-18T13:02:41.359Z,22.17
2018-10-18T13:05:14.964Z,20.30
2018-10-18T13:07:48.576Z,18.53
2018-10-18T13:10:22.101Z,17.50
2018-10-18T13:12:55.857Z,23.25
2018-10-18T13:15:29.627Z,20.97
2018-10-18T13:18:03.402Z,18.77
2018-10-18T13:20:36.985Z,18.90
2018-10-18T13:23:10.786Z,17.52
2018-10-18T13:25:44.515Z,20.90
2018-10-18T13:28:18.819Z,18.10
2018-10-18T13:30:52.378Z,21.73
2018-10-18T13:33:26.212Z,18.73
2018-10-18T13:35:59.998Z,15.83
2018-10-18T13:38:34.398Z,16.83
2018-10-18T13:41:08.062Z,17.43
2018-10-18T13:43:41.882Z,17.75
2018-10-18T13:46:15.758Z,19.90
2018-10-18T13:48:49.475Z,17.70
2018-10-18T13:51:23.146Z,20.90
2018-10-18T13:53:56.957Z,17.48
2018-10-18T13:56:31.573Z,18.50
2018-10-18T13:59:05.324Z,21.60
2018-10-18T14:01:39.088Z,24.50
2018-10-18T14:04:12.699Z,18.40
2018-10-18T14:06:46.452Z,19.90
2018-10-18T14:09:21.129Z,17.95
2018-10-18T14:11:54.956Z,19.62
2018-10-18T14:14:28.597Z,18.90
2018-10-18T14:17:02.324Z,22.37
2018-10-18T14:19:36.125Z,18.00
2018-10-18T14:22:09.901Z,18.45
2018-10-18T14:24:44.469Z,18.00
2018-10-18T14:27:18.947Z,18.50
2018-10-18T14:29:53.529Z,17.95
2018-10-18T14:32:27.144Z,18.83
2018-10-18T14:35:00.898Z,20.67
2018-10-18T14:37:34.519Z,19.95
2018-10-18T14:40:08.348Z,22.23
2018-10-18T14:42:42.036Z,15.45
2018-10-18T14:45:15.787Z,17.45
2018-10-18T14:47:49.536Z,20.55
2018-10-18T14:50:23.412Z,18.58
2018-10-18T14:52:57.086Z,18.98
2018-10-18T14:55:30.676Z,17.40
2018-10-18T14:58:05.283Z,17.67
2018-10-18T15:00:39.188Z,16.65
2018-10-18T15:03:13.115Z,17.52
2018-10-18T15:05:47.587Z,15.82
2018-10-18T15:08:22.000Z,19.05
2018-10-18T15:10:55.765Z,16.98
2018-10-18T15:13:30.328Z,14.18
2018-10-18T15:16:04.140Z,16.48
2018-10-18T15:18:38.510Z,14.43
2018-10-18T15:21:13.134Z,14.75
2018-10-18T15:23:46.977Z,16.33
2018-10-18T15:26:20.742Z,15.52
2018-10-18T15:28:54.803Z,14.80
2018-10-18T15:31:28.407Z,15.35
2018-10-18T15:34:03.057Z,14.77
2018-10-18T15:36:36.826Z,15.88
2018-10-18T15:39:11.681Z,15.40
2018-10-18T15:41:45.396Z,15.38
2018-10-18T15:44:20.214Z,15.60
2018-10-18T15:46:53.932Z,12.65
2018-10-18T15:49:27.792Z,16.58
2018-10-18T15:52:01.492Z,13.18
2018-10-18T15:54:35.406Z,13.43
2018-10-18T15:57:08.897Z,16.23
2018-10-18T15:59:42.471Z,15.98
2018-10-18T16:02:16.108Z,15.05
2018-10-18T16:04:49.772Z,13.57
2018-10-18T16:07:23.466Z,14.52
2018-10-18T16:09:57.080Z,13.57
2018-10-18T16:12:30.816Z,13.57
2018-10-18T16:15:05.398Z,13.73
2018-10-18T16:17:39.307Z,13.38
2018-10-18T16:20:13.104Z,13.48
2018-10-18T16:22:46.760Z,12.45
2018-10-18T16:25:20.873Z,15.00
2018-10-18T16:27:54.729Z,10.35
2018-10-18T16:30:28.459Z,12.80
2018-10-18T16:33:02.061Z,12.93
2018-10-18T16:35:35.821Z,14.15
2018-10-18T16:38:10.481Z,12.75
2018-10-18T16:40:44.861Z,12.32
2018-10-18T16:43:19.308Z,13.07
2018-10-18T16:45:52.913Z,13.18
2018-10-18T16:48:26.676Z,13.07
2018-10-18T16:51:00.506Z,10.93
2018-10-18T16:53:34.141Z,13.07
2018-10-18T16:56:07.973Z,13.13
2018-10-18T16:58:41.592Z,14.13
2018-10-18T17:01:15.372Z,14.48
2018-10-18T17:03:49.098Z,13.25
2018-10-18T17:06:24.183Z,11.80
2018-10-18T17:08:57.854Z,12.68
2018-10-18T17:11:32.560Z,15.30
2018-10-18T17:14:06.300Z,19.05
2018-10-18T17:16:40.722Z,13.38
2018-10-18T17:19:14.474Z,14.38
2018-10-18T17:21:48.949Z,16.23
2018-10-18T17:24:22.595Z,13.73
2018-10-18T17:26:56.459Z,12.95
2018-10-18T17:29:30.091Z,14.32
2018-10-18T17:32:03.683Z,11.27
2018-10-18T17:34:37.274Z,15.00
2018-10-18T17:37:10.884Z,13.23
2018-10-18T17:39:44.693Z,16.73
2018-10-18T17:42:18.621Z,15.90
2018-10-18T17:44:53.216Z,14.27
2018-10-18T17:47:27.026Z,12.27
2018-10-18T17:50:00.798Z,12.00
2018-10-18T17:52:34.426Z,16.12
2018-10-18T17:55:08.218Z,16.08
2018-10-18T17:57:42.022Z,17.08
2018-10-18T18:00:15.682Z,14.77
2018-10-18T18:02:49.476Z,16.25
2018-10-18T18:05:23.170Z,15.10
2018-10-18T18:07:56.917Z,16.95
2018-10-18T18:10:30.692Z,14.60
2018-10-18T18:13:04.569Z,16.87
2018-10-18T18:15:39.201Z,15.18
2018-10-18T18:18:12.898Z,18.42
2018-10-18T18:20:46.527Z,14.10
2018-10-18T18:23:20.363Z,16.90
2018-10-18T18:25:53.963Z,14.38
2018-10-18T18:28:27.628Z,13.95
2018-10-18T18:31:02.065Z,14.65
2018-10-18T18:33:35.784Z,15.30
2018-10-18T18:36:09.563Z,12.57
2018-10-18T18:38:43.290Z,13.73
2018-10-18T18:41:17.026Z,14.07
2018-10-18T18:43:50.586Z,18.42
2018-10-18T18:46:24.422Z,15.88
2018-10-18T18:48:58.092Z,12.88
2018-10-18T18:51:31.742Z,13.73
2018-10-18T18:54:05.501Z,16.83
2018-10-18T18:56:39.172Z,14.57
2018-10-18T18:59:13.087Z,17.27
2018-10-18T19:01:46.944Z,16.33
2018-10-18T19:04:20.813Z,19.60
2018-10-18T19:06:54.664Z,19.42
2018-10-18T19:09:28.304Z,24.37
2018-10-18T19:12:02.200Z,19.48
2018-10-18T19:14:35.961Z,19.58
2018-10-18T19:17:09.599Z,19.23
2018-10-18T19:19:43.384Z,19.25
2018-10-18T19:22:17.220Z,18.80
2018-10-18T19:24:50.902Z,20.15
2018-10-18T19:27:24.696Z,19.55
2018-10-18T19:29:58.481Z,21.65
2018-10-18T19:32:32.224Z,22.77
2018-10-18T19:35:06.886Z,19.15
2018-10-18T19:37:40.734Z,17.67
2018-10-18T19:40:14.432Z,20.85
2018-10-18T19:42:48.150Z,16.02
2018-10-18T19:45:21.906Z,21.17
2018-10-18T19:47:55.618Z,26.33
2018-10-18T19:50:29.408Z,25.73
2018-10-18T19:53:03.112Z,22.00
2018-10-18T19:55:36.858Z,18.62
2018-10-18T19:58:10.517Z,19.58
2018-10-18T20:00:44.385Z,17.45
2018-10-18T20:03:18.059Z,19.08
2018-10-18T20:05:51.755Z,20.10
2018-10-18T20:08:25.517Z,18.10
2018-10-18T20:11:00.067Z,17.20
2018-10-18T20:13:34.612Z,17.98
2018-10-18T20:16:08.391Z,20.90
2018-10-18T20:18:42.296Z,20.20
2018-10-18T20:21:15.971Z,22.45
2018-10-18T20:23:49.801Z,22.35
2018-10-18T20:26:23.677Z,21.95
2018-10-18T20:28:57.145Z,25.37
2018-10-18T20:31:30.855Z,24.02
2018-10-18T20:34:05.481Z,21.40
2018-10-18T20:36:39.875Z,24.95
2018-10-18T20:39:13.717Z,20.73
2018-10-18T20:41:47.308Z,24.27
2018-10-18T20:44:21.071Z,21.40
2018-10-18T20:46:54.934Z,21.70
2018-10-18T20:49:28.563Z,25.33
2018-10-18T20:52:02.352Z,23.67
2018-10-18T20:54:36.192Z,27.35
2018-10-18T20:57:10.024Z,25.25
2018-10-18T20:59:43.684Z,25.30
2018-10-18T21:02:18.129Z,24.25
2018-10-18T21:04:51.966Z,25.98
2018-10-18T21:07:26.487Z,25.90
2018-10-18T21:10:00.088Z,29.80
2018-10-18T21:12:33.855Z,25.60
2018-10-18T21:15:07.624Z,23.58
2018-10-18T21:17:41.396Z,24.63
2018-10-18T21:20:15.053Z,23.65
2018-10-18T21:22:48.912Z,25.30
2018-10-18T21:25:22.541Z,25.83
2018-10-18T21:27:57.227Z,18.20
2018-10-18T21:30:31.581Z,20.77
2018-10-18T21:33:05.394Z,22.08
2018-10-18T21:35:39.142Z,24.83
2018-10-18T21:38:12.778Z,22.95
2018-10-18T21:40:47.384Z,29.90
2018-10-18T21:43:21.058Z,20.80
2018-10-18T21:45:54.878Z,22.25
2018-10-18T21:48:28.493Z,25.00
2018-10-18T21:51:02.106Z,24.90
2018-10-18T21:53:36.840Z,20.45
2018-10-18T21:56:10.423Z,20.00
2018-10-18T21:58:44.021Z,23.00
2018-10-18T22:01:17.769Z,23.38
2018-10-18T22:03:51.542Z,24.12
2018-10-18T22:06:25.085Z,26.00
2018-10-18T22:08:58.702Z,24.75
2018-10-18T22:11:32.218Z,28.00
2018-10-18T22:14:05.792Z,24.65
2018-10-18T22:16:39.416Z,27.60
2018-10-18T22:19:13.242Z,27.42
2018-10-18T22:21:46.814Z,29.87
2018-10-18T22:24:21.230Z,24.12
2018-10-18T22:26:55.756Z,27.70
2018-10-18T22:29:29.381Z,29.17
2018-10-18T22:32:02.998Z,26.67
2018-10-18T22:34:37.396Z,22.13
2018-10-18T22:37:11.277Z,25.70
2018-10-18T22:39:44.798Z,27.10
2018-10-18T22:42:18.350Z,23.08
2018-10-18T22:44:52.168Z,26.37
2018-10-18T22:47:25.801Z,31.00
2018-10-18T22:49:59.388Z,25.92
2018-10-18T22:52:32.956Z,27.05
2018-10-18T22:55:07.330Z,27.83
2018-10-18T22:57:40.963Z,29.27
2018-10-18T23:00:14.751Z,26.58
2018-10-18T23:02:48.281Z,26.45
2018-10-18T23:05:22.634Z,31.50
2018-10-18T23:07:56.227Z,26.08
2018-10-18T23:10:29.803Z,28.62
2018-10-18T23:13:04.165Z,28.20
2018-10-18T23:15:37.786Z,26.90
2018-10-18T23:18:11.385Z,24.87
2018-10-18T23:20:44.986Z,26.17
2018-10-18T23:23:18.542Z,25.67
2018-10-18T23:25:52.225Z,26.17
2018-10-18T23:28:26.025Z,27.02
2018-10-18T23:30:59.658Z,28.98
2018-10-18T23:33:33.294Z,28.80
2018-10-18T23:36:06.802Z,26.60
2018-10-18T23:38:40.482Z,28.48
2018-10-18T23:41:14.214Z,30.60
2018-10-18T23:43:47.742Z,28.45
2018-10-18T23:46:21.405Z,30.55
2018-10-18T23:48:54.987Z,27.55
2018-10-18T23:51:29.590Z,30.10
2018-10-18T23:54:03.384Z,28.10
2018-10-18T23:56:37.049Z,25.40
2018-10-18T23:59:10.950Z,27.52
